Canaseraga, New York
Current Conditions -  °F | °C
As of 6:54 PM on Friday 21 Nov 2014 (Local Time) from KDSV Reporting Station
Overcast Overcast  
Wind Chill: 18°   Ceiling: 5000
Heat Index: 26°   Visibility: 10mi
Dew Point: 15°   Wind: 7mph
Humidity: 63%   Direction: 220°SW
Pressure: 30.44"   Gusts: NA
Location:  42.46°N, 77.78°W
Report Text: KDSV 212354Z AUTO 22006KT 10SM OVC050 M03/M09 A3044 RMK AO2 SLP327 60001 T10331094 11017 21044 51012
Loading
Personal Weather Stations






























Interactive Weather Map New forecast layout! Learn more

10-Day Weather Forecast

Advertisements
Track Severe Weather on mobile